sensor_id;sensor_type;location;lat;lon;timestamp;temperature;humidity
26621;DHT22;14253;44.840;10.444;2022-11-28T00:02:21;3.60;99.90
26621;DHT22;14253;44.840;10.444;2022-11-28T00:04:50;3.60;99.90
26621;DHT22;14253;44.840;10.444;2022-11-28T00:07:16;3.60;99.90
26621;DHT22;14253;44.840;10.444;2022-11-28T00:09:42;3.50;99.90
26621;DHT22;14253;44.840;10.444;2022-11-28T00:12:08;3.60;99.90
26621;DHT22;14253;44.840;10.444;2022-11-28T00:14:34;3.50;99.90
26621;DHT22;14253;44.840;10.444;2022-11-28T00:17:00;3.50;99.90
26621;DHT22;14253;44.840;10.444;2022-11-28T00:19:26;3.40;99.90
26621;DHT22;14253;44.840;10.444;2022-11-28T00:21:51;3.50;99.90
26621;DHT22;14253;44.840;10.444;2022-11-28T00:24:17;3.40;99.90
26621;DHT22;14253;44.840;10.444;2022-11-28T00:26:43;3.50;99.90
26621;DHT22;14253;44.840;10.444;2022-11-28T00:29:10;3.50;99.90
26621;DHT22;14253;44.840;10.444;2022-11-28T00:31:39;3.60;99.90
26621;DHT22;14253;44.840;10.444;2022-11-28T00:34:08;3.50;99.90
26621;DHT22;14253;44.840;10.444;2022-11-28T00:36:35;3.60;99.90
26621;DHT22;14253;44.840;10.444;2022-11-28T00:39:01;3.70;99.90
26621;DHT22;14253;44.840;10.444;2022-11-28T00:41:29;3.70;99.90
26621;DHT22;14253;44.840;10.444;2022-11-28T00:43:56;3.70;99.90
26621;DHT22;14253;44.840;10.444;2022-11-28T00:46:22;3.60;99.90
26621;DHT22;14253;44.840;10.444;2022-11-28T00:48:49;3.60;99.90
26621;DHT22;14253;44.840;10.444;2022-11-28T00:51:18;3.60;99.90
26621;DHT22;14253;44.840;10.444;2022-11-28T00:53:46;3.60;99.90
26621;DHT22;14253;44.840;10.444;2022-11-28T00:56:14;3.50;99.90
26621;DHT22;14253;44.840;10.444;2022-11-28T00:58:41;3.60;99.90
26621;DHT22;14253;44.840;10.444;2022-11-28T01:01:09;3.60;99.90
26621;DHT22;14253;44.840;10.444;2022-11-28T01:03:36;3.60;99.90
26621;DHT22;14253;44.840;10.444;2022-11-28T01:06:04;3.60;99.90
26621;DHT22;14253;44.840;10.444;2022-11-28T01:08:30;3.60;99.90
26621;DHT22;14253;44.840;10.444;2022-11-28T01:10:56;3.60;99.90
26621;DHT22;14253;44.840;10.444;2022-11-28T01:13:21;3.60;99.90
26621;DHT22;14253;44.840;10.444;2022-11-28T01:15:47;3.70;99.90
26621;DHT22;14253;44.840;10.444;2022-11-28T01:18:13;3.70;99.90
26621;DHT22;14253;44.840;10.444;2022-11-28T01:20:39;3.70;99.90
26621;DHT22;14253;44.840;10.444;2022-11-28T01:23:05;3.70;99.90
26621;DHT22;14253;44.840;10.444;2022-11-28T01:25:31;3.60;99.90
26621;DHT22;14253;44.840;10.444;2022-11-28T01:27:57;3.60;99.90
26621;DHT22;14253;44.840;10.444;2022-11-28T01:30:23;3.60;99.90
26621;DHT22;14253;44.840;10.444;2022-11-28T01:32:49;3.50;99.90
26621;DHT22;14253;44.840;10.444;2022-11-28T01:35:15;3.50;99.90
26621;DHT22;14253;44.840;10.444;2022-11-28T01:37:41;3.50;99.90
26621;DHT22;14253;44.840;10.444;2022-11-28T01:40:09;3.50;99.90
26621;DHT22;14253;44.840;10.444;2022-11-28T01:42:36;3.50;99.90
26621;DHT22;14253;44.840;10.444;2022-11-28T01:45:12;3.50;99.90
26621;DHT22;14253;44.840;10.444;2022-11-28T01:47:39;3.50;99.90
26621;DHT22;14253;44.840;10.444;2022-11-28T01:50:06;3.50;99.90
26621;DHT22;14253;44.840;10.444;2022-11-28T01:52:36;3.60;99.90
26621;DHT22;14253;44.840;10.444;2022-11-28T01:55:05;3.60;99.90
26621;DHT22;14253;44.840;10.444;2022-11-28T01:57:32;3.60;99.90
26621;DHT22;14253;44.840;10.444;2022-11-28T02:00:10;3.60;99.90
26621;DHT22;14253;44.840;10.444;2022-11-28T02:02:42;3.60;99.90
26621;DHT22;14253;44.840;10.444;2022-11-28T02:05:08;3.60;99.90
26621;DHT22;14253;44.840;10.444;2022-11-28T02:07:36;3.50;99.90
26621;DHT22;14253;44.840;10.444;2022-11-28T02:10:05;3.50;99.90
26621;DHT22;14253;44.840;10.444;2022-11-28T02:15:26;3.50;99.90
26621;DHT22;14253;44.840;10.444;2022-11-28T02:20:55;3.60;99.90
26621;DHT22;14253;44.840;10.444;2022-11-28T02:32:03;3.70;99.90
26621;DHT22;14253;44.840;10.444;2022-11-28T02:37:21;3.60;99.90
26621;DHT22;14253;44.840;10.444;2022-11-28T02:40:05;3.60;99.90
26621;DHT22;14253;44.840;10.444;2022-11-28T02:45:35;3.60;99.90
26621;DHT22;14253;44.840;10.444;2022-11-28T02:48:09;3.60;99.90
26621;DHT22;14253;44.840;10.444;2022-11-28T02:50:49;3.70;99.90
26621;DHT22;14253;44.840;10.444;2022-11-28T02:53:21;3.60;99.90
26621;DHT22;14253;44.840;10.444;2022-11-28T02:55:50;3.60;99.90
26621;DHT22;14253;44.840;10.444;2022-11-28T02:58:17;3.70;99.90
26621;DHT22;14253;44.840;10.444;2022-11-28T03:00:45;3.70;99.90
26621;DHT22;14253;44.840;10.444;2022-11-28T03:12:11;3.70;99.90
26621;DHT22;14253;44.840;10.444;2022-11-28T03:14:50;3.70;99.90
26621;DHT22;14253;44.840;10.444;2022-11-28T03:25:54;3.60;99.90
26621;DHT22;14253;44.840;10.444;2022-11-28T03:28:37;3.60;99.90
26621;DHT22;14253;44.840;10.444;2022-11-28T03:31:07;3.50;99.90
26621;DHT22;14253;44.840;10.444;2022-11-28T03:33:44;3.50;99.90
26621;DHT22;14253;44.840;10.444;2022-11-28T03:36:15;3.50;99.90
26621;DHT22;14253;44.840;10.444;2022-11-28T03:38:47;3.50;99.90
26621;DHT22;14253;44.840;10.444;2022-11-28T03:42:16;3.50;99.90
26621;DHT22;14253;44.840;10.444;2022-11-28T03:44:44;3.50;99.90
26621;DHT22;14253;44.840;10.444;2022-11-28T03:47:12;3.50;99.90
26621;DHT22;14253;44.840;10.444;2022-11-28T03:49:46;3.50;99.90
26621;DHT22;14253;44.840;10.444;2022-11-28T03:52:24;3.50;99.90
26621;DHT22;14253;44.840;10.444;2022-11-28T03:54:56;3.50;99.90
26621;DHT22;14253;44.840;10.444;2022-11-28T03:59:57;3.50;99.90
26621;DHT22;14253;44.840;10.444;2022-11-28T04:02:56;3.50;99.90
26621;DHT22;14253;44.840;10.444;2022-11-28T04:05:36;3.50;99.90
26621;DHT22;14253;44.840;10.444;2022-11-28T04:08:16;3.60;99.90
26621;DHT22;14253;44.840;10.444;2022-11-28T04:10:48;3.60;99.90
26621;DHT22;14253;44.840;10.444;2022-11-28T04:13:25;3.60;99.90
26621;DHT22;14253;44.840;10.444;2022-11-28T04:18:58;3.60;99.90
26621;DHT22;14253;44.840;10.444;2022-11-28T04:24:04;3.60;99.90
26621;DHT22;14253;44.840;10.444;2022-11-28T04:26:34;3.60;99.90
26621;DHT22;14253;44.840;10.444;2022-11-28T04:29:04;3.60;99.90
26621;DHT22;14253;44.840;10.444;2022-11-28T04:31:31;3.60;99.90
26621;DHT22;14253;44.840;10.444;2022-11-28T04:34:02;3.50;99.90
26621;DHT22;14253;44.840;10.444;2022-11-28T04:36:30;3.50;99.90
26621;DHT22;14253;44.840;10.444;2022-11-28T04:38:58;3.50;99.90
26621;DHT22;14253;44.840;10.444;2022-11-28T04:41:33;3.60;99.90
26621;DHT22;14253;44.840;10.444;2022-11-28T04:44:22;3.60;99.90
26621;DHT22;14253;44.840;10.444;2022-11-28T04:46:52;3.60;99.90
26621;DHT22;14253;44.840;10.444;2022-11-28T04:49:19;3.60;99.90
26621;DHT22;14253;44.840;10.444;2022-11-28T04:54:54;3.70;99.90
26621;DHT22;14253;44.840;10.444;2022-11-28T04:57:44;3.70;99.90
26621;DHT22;14253;44.840;10.444;2022-11-28T05:00:14;3.70;99.90
26621;DHT22;14253;44.840;10.444;2022-11-28T05:02:44;3.60;99.90
26621;DHT22;14253;44.840;10.444;2022-11-28T05:05:13;3.60;99.90
26621;DHT22;14253;44.840;10.444;2022-11-28T05:07:39;3.70;99.90
26621;DHT22;14253;44.840;10.444;2022-11-28T05:10:06;3.60;99.90
26621;DHT22;14253;44.840;10.444;2022-11-28T05:12:32;3.60;99.90
26621;DHT22;14253;44.840;10.444;2022-11-28T05:14:58;3.60;99.90
26621;DHT22;14253;44.840;10.444;2022-11-28T05:17:24;3.50;99.90
26621;DHT22;14253;44.840;10.444;2022-11-28T05:19:50;3.60;99.90
26621;DHT22;14253;44.840;10.444;2022-11-28T05:22:16;3.60;99.90
26621;DHT22;14253;44.840;10.444;2022-11-28T05:24:41;3.50;99.90
26621;DHT22;14253;44.840;10.444;2022-11-28T05:27:07;3.60;99.90
26621;DHT22;14253;44.840;10.444;2022-11-28T05:29:33;3.60;99.90
26621;DHT22;14253;44.840;10.444;2022-11-28T05:31:59;3.60;99.90
26621;DHT22;14253;44.840;10.444;2022-11-28T05:34:25;3.60;99.90
26621;DHT22;14253;44.840;10.444;2022-11-28T05:36:51;3.70;99.90
26621;DHT22;14253;44.840;10.444;2022-11-28T05:39:17;3.70;99.90
26621;DHT22;14253;44.840;10.444;2022-11-28T05:41:43;3.80;99.90
26621;DHT22;14253;44.840;10.444;2022-11-28T05:44:09;3.70;99.90
26621;DHT22;14253;44.840;10.444;2022-11-28T05:46:35;3.70;99.90
26621;DHT22;14253;44.840;10.444;2022-11-28T05:49:01;3.70;99.90
26621;DHT22;14253;44.840;10.444;2022-11-28T05:51:27;3.70;99.90
26621;DHT22;14253;44.840;10.444;2022-11-28T05:53:53;3.70;99.90
26621;DHT22;14253;44.840;10.444;2022-11-28T05:56:20;3.70;99.90
26621;DHT22;14253;44.840;10.444;2022-11-28T05:58:48;3.70;99.90
26621;DHT22;14253;44.840;10.444;2022-11-28T06:01:19;3.70;99.90
26621;DHT22;14253;44.840;10.444;2022-11-28T06:03:46;3.70;99.90
26621;DHT22;14253;44.840;10.444;2022-11-28T06:06:18;3.70;99.90
26621;DHT22;14253;44.840;10.444;2022-11-28T06:08:45;3.70;99.90
26621;DHT22;14253;44.840;10.444;2022-11-28T06:11:12;3.70;99.90
26621;DHT22;14253;44.840;10.444;2022-11-28T06:13:40;3.80;99.90
26621;DHT22;14253;44.840;10.444;2022-11-28T06:16:08;3.80;99.90
26621;DHT22;14253;44.840;10.444;2022-11-28T06:18:35;3.70;99.90
26621;DHT22;14253;44.840;10.444;2022-11-28T06:21:02;3.80;99.90
26621;DHT22;14253;44.840;10.444;2022-11-28T06:23:28;3.80;99.90
26621;DHT22;14253;44.840;10.444;2022-11-28T06:25:54;3.80;99.90
26621;DHT22;14253;44.840;10.444;2022-11-28T06:28:20;3.80;99.90
26621;DHT22;14253;44.840;10.444;2022-11-28T06:30:46;3.80;99.90
26621;DHT22;14253;44.840;10.444;2022-11-28T06:33:12;3.80;99.90
26621;DHT22;14253;44.840;10.444;2022-11-28T06:35:38;3.90;99.90
26621;DHT22;14253;44.840;10.444;2022-11-28T06:38:04;3.90;99.90
26621;DHT22;14253;44.840;10.444;2022-11-28T06:40:30;3.90;99.90
26621;DHT22;14253;44.840;10.444;2022-11-28T06:42:57;3.90;99.90
26621;DHT22;14253;44.840;10.444;2022-11-28T06:45:22;3.90;99.90
26621;DHT22;14253;44.840;10.444;2022-11-28T06:47:48;3.90;99.90
26621;DHT22;14253;44.840;10.444;2022-11-28T06:50:14;3.90;99.90
26621;DHT22;14253;44.840;10.444;2022-11-28T06:52:40;3.90;99.90
26621;DHT22;14253;44.840;10.444;2022-11-28T06:55:06;4.00;99.90
26621;DHT22;14253;44.840;10.444;2022-11-28T06:57:35;4.00;99.90
26621;DHT22;14253;44.840;10.444;2022-11-28T07:00:03;4.00;99.90
26621;DHT22;14253;44.840;10.444;2022-11-28T07:02:31;4.00;99.90
26621;DHT22;14253;44.840;10.444;2022-11-28T07:04:57;4.10;99.90
26621;DHT22;14253;44.840;10.444;2022-11-28T07:07:24;4.10;99.90
26621;DHT22;14253;44.840;10.444;2022-11-28T07:09:51;4.10;99.90
26621;DHT22;14253;44.840;10.444;2022-11-28T07:12:17;4.10;99.90
26621;DHT22;14253;44.840;10.444;2022-11-28T07:14:43;4.10;99.90
26621;DHT22;14253;44.840;10.444;2022-11-28T07:17:09;4.10;99.90
26621;DHT22;14253;44.840;10.444;2022-11-28T07:19:35;4.20;99.90
26621;DHT22;14253;44.840;10.444;2022-11-28T07:22:01;4.20;99.90
26621;DHT22;14253;44.840;10.444;2022-11-28T07:24:27;4.20;99.90
26621;DHT22;14253;44.840;10.444;2022-11-28T07:26:55;4.10;99.90
26621;DHT22;14253;44.840;10.444;2022-11-28T07:29:21;4.20;99.90
26621;DHT22;14253;44.840;10.444;2022-11-28T07:31:49;4.20;99.90
26621;DHT22;14253;44.840;10.444;2022-11-28T07:34:15;4.20;99.90
26621;DHT22;14253;44.840;10.444;2022-11-28T07:36:41;4.30;99.90
26621;DHT22;14253;44.840;10.444;2022-11-28T07:39:09;4.30;99.90
26621;DHT22;14253;44.840;10.444;2022-11-28T07:41:36;4.30;99.90
26621;DHT22;14253;44.840;10.444;2022-11-28T07:44:03;4.30;99.90
26621;DHT22;14253;44.840;10.444;2022-11-28T07:46:30;4.30;99.90
26621;DHT22;14253;44.840;10.444;2022-11-28T07:48:57;4.30;99.90
26621;DHT22;14253;44.840;10.444;2022-11-28T07:51:26;4.20;99.90
26621;DHT22;14253;44.840;10.444;2022-11-28T07:53:52;4.20;99.90
26621;DHT22;14253;44.840;10.444;2022-11-28T07:56:24;4.20;99.90
26621;DHT22;14253;44.840;10.444;2022-11-28T07:58:51;4.20;99.90
26621;DHT22;14253;44.840;10.444;2022-11-28T08:01:20;4.30;99.90
26621;DHT22;14253;44.840;10.444;2022-11-28T08:03:46;4.40;99.90
26621;DHT22;14253;44.840;10.444;2022-11-28T08:06:14;4.50;99.90
26621;DHT22;14253;44.840;10.444;2022-11-28T08:08:41;4.60;99.90
26621;DHT22;14253;44.840;10.444;2022-11-28T08:11:09;4.60;99.90
26621;DHT22;14253;44.840;10.444;2022-11-28T08:13:36;4.70;99.90
26621;DHT22;14253;44.840;10.444;2022-11-28T08:16:07;4.80;99.90
26621;DHT22;14253;44.840;10.444;2022-11-28T08:18:34;4.90;99.90
26621;DHT22;14253;44.840;10.444;2022-11-28T08:21:05;4.90;99.90
26621;DHT22;14253;44.840;10.444;2022-11-28T08:23:35;5.00;99.90
26621;DHT22;14253;44.840;10.444;2022-11-28T08:26:03;5.10;99.90
26621;DHT22;14253;44.840;10.444;2022-11-28T08:28:30;5.10;99.90
26621;DHT22;14253;44.840;10.444;2022-11-28T08:30:56;5.20;99.90
26621;DHT22;14253;44.840;10.444;2022-11-28T08:33:24;5.30;99.90
26621;DHT22;14253;44.840;10.444;2022-11-28T08:35:53;5.40;99.90
26621;DHT22;14253;44.840;10.444;2022-11-28T08:38:19;5.50;99.90
26621;DHT22;14253;44.840;10.444;2022-11-28T08:40:45;5.60;99.90
26621;DHT22;14253;44.840;10.444;2022-11-28T08:43:11;5.70;99.90
26621;DHT22;14253;44.840;10.444;2022-11-28T08:45:37;5.70;99.90
26621;DHT22;14253;44.840;10.444;2022-11-28T08:48:04;5.80;99.90
26621;DHT22;14253;44.840;10.444;2022-11-28T08:50:31;5.90;99.90
26621;DHT22;14253;44.840;10.444;2022-11-28T08:52:56;5.80;99.90
26621;DHT22;14253;44.840;10.444;2022-11-28T08:55:22;5.90;99.90
26621;DHT22;14253;44.840;10.444;2022-11-28T08:57:48;5.90;99.90
26621;DHT22;14253;44.840;10.444;2022-11-28T09:00:15;5.90;99.90
26621;DHT22;14253;44.840;10.444;2022-11-28T09:02:41;6.00;99.90
26621;DHT22;14253;44.840;10.444;2022-11-28T09:05:07;6.00;99.90
26621;DHT22;14253;44.840;10.444;2022-11-28T09:07:33;6.00;99.90
26621;DHT22;14253;44.840;10.444;2022-11-28T09:09:59;5.90;99.90
26621;DHT22;14253;44.840;10.444;2022-11-28T09:12:25;5.90;99.90
26621;DHT22;14253;44.840;10.444;2022-11-28T09:14:51;5.80;99.90
26621;DHT22;14253;44.840;10.444;2022-11-28T09:17:17;5.80;99.90
26621;DHT22;14253;44.840;10.444;2022-11-28T09:19:43;5.80;99.90
26621;DHT22;14253;44.840;10.444;2022-11-28T09:22:09;5.80;99.90
26621;DHT22;14253;44.840;10.444;2022-11-28T09:24:35;5.90;99.90
26621;DHT22;14253;44.840;10.444;2022-11-28T09:27:01;5.90;99.90
26621;DHT22;14253;44.840;10.444;2022-11-28T09:29:27;5.90;99.90
26621;DHT22;14253;44.840;10.444;2022-11-28T09:31:53;5.90;99.90
26621;DHT22;14253;44.840;10.444;2022-11-28T09:34:19;5.90;99.90
26621;DHT22;14253;44.840;10.444;2022-11-28T09:36:46;5.90;99.90
26621;DHT22;14253;44.840;10.444;2022-11-28T09:39:13;6.00;99.90
26621;DHT22;14253;44.840;10.444;2022-11-28T09:41:57;6.00;99.90
26621;DHT22;14253;44.840;10.444;2022-11-28T09:44:40;6.00;99.90
26621;DHT22;14253;44.840;10.444;2022-11-28T09:47:20;6.10;99.90
26621;DHT22;14253;44.840;10.444;2022-11-28T09:49:52;6.10;99.90
26621;DHT22;14253;44.840;10.444;2022-11-28T09:52:42;6.20;99.90
26621;DHT22;14253;44.840;10.444;2022-11-28T09:55:41;6.20;99.90
26621;DHT22;14253;44.840;10.444;2022-11-28T09:58:23;6.20;99.90
26621;DHT22;14253;44.840;10.444;2022-11-28T10:03:39;6.40;99.90
26621;DHT22;14253;44.840;10.444;2022-11-28T10:06:25;6.50;99.90
26621;DHT22;14253;44.840;10.444;2022-11-28T10:14:49;6.50;99.90
26621;DHT22;14253;44.840;10.444;2022-11-28T10:17:30;6.60;99.90
26621;DHT22;14253;44.840;10.444;2022-11-28T10:20:07;6.60;99.90
26621;DHT22;14253;44.840;10.444;2022-11-28T10:22:51;6.70;99.90
26621;DHT22;14253;44.840;10.444;2022-11-28T10:25:27;6.80;99.90
26621;DHT22;14253;44.840;10.444;2022-11-28T10:27:54;6.80;99.90
26621;DHT22;14253;44.840;10.444;2022-11-28T10:30:28;6.90;99.90
26621;DHT22;14253;44.840;10.444;2022-11-28T10:33:12;7.00;99.90
26621;DHT22;14253;44.840;10.444;2022-11-28T10:35:45;6.90;99.90
26621;DHT22;14253;44.840;10.444;2022-11-28T10:38:14;6.80;99.90
26621;DHT22;14253;44.840;10.444;2022-11-28T10:41:11;6.90;99.90
26621;DHT22;14253;44.840;10.444;2022-11-28T10:46:30;6.80;99.90
26621;DHT22;14253;44.840;10.444;2022-11-28T10:49:16;6.80;99.90
26621;DHT22;14253;44.840;10.444;2022-11-28T10:51:48;6.80;99.90
26621;DHT22;14253;44.840;10.444;2022-11-28T10:57:54;6.90;99.90
26621;DHT22;14253;44.840;10.444;2022-11-28T11:00:21;6.80;99.90
26621;DHT22;14253;44.840;10.444;2022-11-28T11:02:52;6.90;99.90
26621;DHT22;14253;44.840;10.444;2022-11-28T11:05:24;6.80;99.90
26621;DHT22;14253;44.840;10.444;2022-11-28T11:08:03;6.90;99.90
26621;DHT22;14253;44.840;10.444;2022-11-28T11:10:40;6.90;99.90
26621;DHT22;14253;44.840;10.444;2022-11-28T11:15:46;6.90;99.90
26621;DHT22;14253;44.840;10.444;2022-11-28T11:18:26;6.90;99.90
26621;DHT22;14253;44.840;10.444;2022-11-28T11:21:12;6.90;99.90
26621;DHT22;14253;44.840;10.444;2022-11-28T11:23:39;7.00;99.90
26621;DHT22;14253;44.840;10.444;2022-11-28T11:26:06;7.00;99.90
26621;DHT22;14253;44.840;10.444;2022-11-28T11:28:43;7.00;99.90
26621;DHT22;14253;44.840;10.444;2022-11-28T11:34:02;6.90;99.90
26621;DHT22;14253;44.840;10.444;2022-11-28T11:36:34;6.90;99.90
26621;DHT22;14253;44.840;10.444;2022-11-28T11:41:41;6.90;99.90
26621;DHT22;14253;44.840;10.444;2022-11-28T11:47:05;7.00;99.90
26621;DHT22;14253;44.840;10.444;2022-11-28T11:49:37;7.00;99.90
26621;DHT22;14253;44.840;10.444;2022-11-28T11:52:24;7.00;99.90
26621;DHT22;14253;44.840;10.444;2022-11-28T11:57:30;7.00;99.90
26621;DHT22;14253;44.840;10.444;2022-11-28T12:00:18;7.00;99.90
26621;DHT22;14253;44.840;10.444;2022-11-28T12:05:26;7.10;99.90
26621;DHT22;14253;44.840;10.444;2022-11-28T12:08:09;7.10;99.90
26621;DHT22;14253;44.840;10.444;2022-11-28T12:10:52;7.20;99.90
26621;DHT22;14253;44.840;10.444;2022-11-28T12:13:22;7.20;99.90
26621;DHT22;14253;44.840;10.444;2022-11-28T12:16:05;7.20;99.90
26621;DHT22;14253;44.840;10.444;2022-11-28T12:21:07;7.20;99.90
26621;DHT22;14253;44.840;10.444;2022-11-28T12:24:01;7.30;99.90
26621;DHT22;14253;44.840;10.444;2022-11-28T12:26:58;7.30;99.90
26621;DHT22;14253;44.840;10.444;2022-11-28T12:30:42;7.30;99.90
26621;DHT22;14253;44.840;10.444;2022-11-28T12:43:51;7.30;99.90
26621;DHT22;14253;44.840;10.444;2022-11-28T12:46:29;7.30;99.90
26621;DHT22;14253;44.840;10.444;2022-11-28T12:49:31;7.20;99.90
26621;DHT22;14253;44.840;10.444;2022-11-28T12:57:45;7.40;99.90
26621;DHT22;14253;44.840;10.444;2022-11-28T13:00:22;7.30;99.90
26621;DHT22;14253;44.840;10.444;2022-11-28T13:08:58;7.30;99.90
26621;DHT22;14253;44.840;10.444;2022-11-28T13:18:08;7.40;99.90
26621;DHT22;14253;44.840;10.444;2022-11-28T13:23:22;7.40;99.90
26621;DHT22;14253;44.840;10.444;2022-11-28T13:26:02;7.30;99.90
26621;DHT22;14253;44.840;10.444;2022-11-28T13:31:04;7.20;99.90
26621;DHT22;14253;44.840;10.444;2022-11-28T13:33:50;7.30;99.90
26621;DHT22;14253;44.840;10.444;2022-11-28T13:36:51;7.30;99.90
26621;DHT22;14253;44.840;10.444;2022-11-28T13:39:47;7.30;99.90
26621;DHT22;14253;44.840;10.444;2022-11-28T13:47:36;7.20;99.90
26621;DHT22;14253;44.840;10.444;2022-11-28T13:55:48;7.20;99.90
26621;DHT22;14253;44.840;10.444;2022-11-28T14:01:20;7.20;99.90
26621;DHT22;14253;44.840;10.444;2022-11-28T14:06:38;7.20;99.90
26621;DHT22;14253;44.840;10.444;2022-11-28T14:20:13;7.10;99.90
26621;DHT22;14253;44.840;10.444;2022-11-28T14:25:51;7.10;99.90
26621;DHT22;14253;44.840;10.444;2022-11-28T14:30:50;7.10;99.90
26621;DHT22;14253;44.840;10.444;2022-11-28T14:33:25;7.10;99.90
26621;DHT22;14253;44.840;10.444;2022-11-28T14:36:01;7.10;99.90
26621;DHT22;14253;44.840;10.444;2022-11-28T14:41:07;7.10;99.90
26621;DHT22;14253;44.840;10.444;2022-11-28T14:43:46;7.10;99.90
26621;DHT22;14253;44.840;10.444;2022-11-28T14:46:25;7.00;99.90
26621;DHT22;14253;44.840;10.444;2022-11-28T14:54:25;7.00;99.90
26621;DHT22;14253;44.840;10.444;2022-11-28T14:56:52;7.00;99.90
26621;DHT22;14253;44.840;10.444;2022-11-28T14:59:23;6.90;99.90
26621;DHT22;14253;44.840;10.444;2022-11-28T15:02:06;6.90;99.90
26621;DHT22;14253;44.840;10.444;2022-11-28T15:16:30;6.70;99.90
26621;DHT22;14253;44.840;10.444;2022-11-28T15:19:02;6.70;99.90
26621;DHT22;14253;44.840;10.444;2022-11-28T15:21:44;6.70;99.90
26621;DHT22;14253;44.840;10.444;2022-11-28T15:24:23;6.70;99.90
26621;DHT22;14253;44.840;10.444;2022-11-28T15:26:55;6.60;99.90
26621;DHT22;14253;44.840;10.444;2022-11-28T15:29:26;6.60;99.90
26621;DHT22;14253;44.840;10.444;2022-11-28T15:31:54;6.60;99.90
26621;DHT22;14253;44.840;10.444;2022-11-28T15:37:16;6.60;99.90
26621;DHT22;14253;44.840;10.444;2022-11-28T15:39:45;6.50;99.90
26621;DHT22;14253;44.840;10.444;2022-11-28T15:42:39;6.50;99.90
26621;DHT22;14253;44.840;10.444;2022-11-28T15:45:07;6.50;99.90
26621;DHT22;14253;44.840;10.444;2022-11-28T15:47:35;6.50;99.90
26621;DHT22;14253;44.840;10.444;2022-11-28T15:50:14;6.50;99.90
26621;DHT22;14253;44.840;10.444;2022-11-28T15:53:15;6.40;99.90
26621;DHT22;14253;44.840;10.444;2022-11-28T15:55:42;6.40;99.90
26621;DHT22;14253;44.840;10.444;2022-11-28T15:58:19;6.40;99.90
26621;DHT22;14253;44.840;10.444;2022-11-28T16:00:57;6.30;99.90
26621;DHT22;14253;44.840;10.444;2022-11-28T16:03:26;6.30;99.90
26621;DHT22;14253;44.840;10.444;2022-11-28T16:05:54;6.30;99.90
26621;DHT22;14253;44.840;10.444;2022-11-28T16:08:33;6.30;99.90
26621;DHT22;14253;44.840;10.444;2022-11-28T16:11:03;6.30;99.90
26621;DHT22;14253;44.840;10.444;2022-11-28T16:13:31;6.30;99.90
26621;DHT22;14253;44.840;10.444;2022-11-28T16:15:58;6.20;99.90
26621;DHT22;14253;44.840;10.444;2022-11-28T16:18:27;6.20;99.90
26621;DHT22;14253;44.840;10.444;2022-11-28T16:20:55;6.20;99.90
26621;DHT22;14253;44.840;10.444;2022-11-28T16:23:33;6.20;99.90
26621;DHT22;14253;44.840;10.444;2022-11-28T16:26:02;6.20;99.90
26621;DHT22;14253;44.840;10.444;2022-11-28T16:28:34;6.10;99.90
26621;DHT22;14253;44.840;10.444;2022-11-28T16:31:01;6.20;99.90
26621;DHT22;14253;44.840;10.444;2022-11-28T16:33:42;6.10;99.90
26621;DHT22;14253;44.840;10.444;2022-11-28T16:36:17;6.10;99.90
26621;DHT22;14253;44.840;10.444;2022-11-28T16:38:44;6.10;99.90
26621;DHT22;14253;44.840;10.444;2022-11-28T16:43:46;6.10;99.90
26621;DHT22;14253;44.840;10.444;2022-11-28T16:46:19;6.10;99.90
26621;DHT22;14253;44.840;10.444;2022-11-28T16:48:56;6.10;99.90
26621;DHT22;14253;44.840;10.444;2022-11-28T16:51:29;6.10;99.90
26621;DHT22;14253;44.840;10.444;2022-11-28T16:53:55;6.10;99.90
26621;DHT22;14253;44.840;10.444;2022-11-28T16:58:47;6.10;99.90
26621;DHT22;14253;44.840;10.444;2022-11-28T17:01:13;6.10;99.90
26621;DHT22;14253;44.840;10.444;2022-11-28T17:06:10;6.00;99.90
26621;DHT22;14253;44.840;10.444;2022-11-28T17:08:37;6.00;99.90
26621;DHT22;14253;44.840;10.444;2022-11-28T17:11:03;6.00;99.90
26621;DHT22;14253;44.840;10.444;2022-11-28T17:13:29;6.00;99.90
26621;DHT22;14253;44.840;10.444;2022-11-28T17:15:55;6.00;99.90
26621;DHT22;14253;44.840;10.444;2022-11-28T17:18:21;6.00;99.90
26621;DHT22;14253;44.840;10.444;2022-11-28T17:20:46;6.00;99.90
26621;DHT22;14253;44.840;10.444;2022-11-28T17:23:12;6.00;99.90
26621;DHT22;14253;44.840;10.444;2022-11-28T17:25:39;6.10;99.90
26621;DHT22;14253;44.840;10.444;2022-11-28T17:28:05;6.10;99.90
26621;DHT22;14253;44.840;10.444;2022-11-28T17:30:31;6.10;99.90
26621;DHT22;14253;44.840;10.444;2022-11-28T17:32:56;6.10;99.90
26621;DHT22;14253;44.840;10.444;2022-11-28T17:35:24;6.10;99.90
26621;DHT22;14253;44.840;10.444;2022-11-28T17:37:52;6.10;99.90
26621;DHT22;14253;44.840;10.444;2022-11-28T17:40:17;6.10;99.90
26621;DHT22;14253;44.840;10.444;2022-11-28T17:43:03;6.10;99.90
26621;DHT22;14253;44.840;10.444;2022-11-28T17:45:30;6.10;99.90
26621;DHT22;14253;44.840;10.444;2022-11-28T17:47:58;6.10;99.90
26621;DHT22;14253;44.840;10.444;2022-11-28T17:50:24;6.10;99.90
26621;DHT22;14253;44.840;10.444;2022-11-28T17:52:50;6.10;99.90
26621;DHT22;14253;44.840;10.444;2022-11-28T17:55:16;6.10;99.90
26621;DHT22;14253;44.840;10.444;2022-11-28T17:57:45;6.10;99.90
26621;DHT22;14253;44.840;10.444;2022-11-28T18:00:12;6.10;99.90
26621;DHT22;14253;44.840;10.444;2022-11-28T18:02:41;6.10;99.90
26621;DHT22;14253;44.840;10.444;2022-11-28T18:05:08;6.10;99.90
26621;DHT22;14253;44.840;10.444;2022-11-28T18:07:34;6.00;99.90
26621;DHT22;14253;44.840;10.444;2022-11-28T18:10:00;6.10;99.90
26621;DHT22;14253;44.840;10.444;2022-11-28T18:12:28;6.00;99.90
26621;DHT22;14253;44.840;10.444;2022-11-28T18:14:53;6.00;99.90
26621;DHT22;14253;44.840;10.444;2022-11-28T18:17:19;6.00;99.90
26621;DHT22;14253;44.840;10.444;2022-11-28T18:19:46;6.00;99.90
26621;DHT22;14253;44.840;10.444;2022-11-28T18:22:11;6.00;99.90
26621;DHT22;14253;44.840;10.444;2022-11-28T18:24:37;6.00;99.90
26621;DHT22;14253;44.840;10.444;2022-11-28T18:27:04;6.00;99.90
26621;DHT22;14253;44.840;10.444;2022-11-28T18:29:30;6.00;99.90
26621;DHT22;14253;44.840;10.444;2022-11-28T18:31:56;6.00;99.90
26621;DHT22;14253;44.840;10.444;2022-11-28T18:34:22;5.90;99.90
26621;DHT22;14253;44.840;10.444;2022-11-28T18:36:48;5.90;99.90
26621;DHT22;14253;44.840;10.444;2022-11-28T18:39:14;5.90;99.90
26621;DHT22;14253;44.840;10.444;2022-11-28T18:41:43;5.90;99.90
26621;DHT22;14253;44.840;10.444;2022-11-28T18:44:09;5.80;99.90
26621;DHT22;14253;44.840;10.444;2022-11-28T18:46:35;5.80;99.90
26621;DHT22;14253;44.840;10.444;2022-11-28T18:49:02;5.70;99.90
26621;DHT22;14253;44.840;10.444;2022-11-28T18:51:29;5.70;99.90
26621;DHT22;14253;44.840;10.444;2022-11-28T18:53:58;5.60;99.90